sensor_id;sensor_type;location;lat;lon;timestamp;pressure;altitude;pressure_sealevel;temperature;humidity
75815;BME280;70031;45.570;14.228;2023-07-31T00:01:11;96815.66;;;17.03;100.00
75815;BME280;70031;45.570;14.228;2023-07-31T00:03:12;96817.91;;;17.01;100.00
75815;BME280;70031;45.570;14.228;2023-07-31T00:05:12;96831.31;;;17.06;100.00
75815;BME280;70031;45.570;14.228;2023-07-31T00:07:12;96829.28;;;16.94;100.00
75815;BME280;70031;45.570;14.228;2023-07-31T00:09:13;96823.31;;;16.80;100.00
75815;BME280;70031;45.570;14.228;2023-07-31T00:11:13;96817.41;;;16.78;100.00
75815;BME280;70031;45.570;14.228;2023-07-31T00:13:13;96823.66;;;16.70;100.00
75815;BME280;70031;45.570;14.228;2023-07-31T00:15:15;96818.88;;;16.67;100.00
75815;BME280;70031;45.570;14.228;2023-07-31T00:17:17;96810.91;;;16.62;100.00
75815;BME280;70031;45.570;14.228;2023-07-31T00:19:17;96813.44;;;16.67;100.00
75815;BME280;70031;45.570;14.228;2023-07-31T00:21:17;96814.56;;;16.66;100.00
75815;BME280;70031;45.570;14.228;2023-07-31T00:23:18;96813.94;;;16.60;100.00
75815;BME280;70031;45.570;14.228;2023-07-31T00:25:18;96804.25;;;16.50;100.00
75815;BME280;70031;45.570;14.228;2023-07-31T00:27:19;96808.09;;;16.49;100.00
75815;BME280;70031;45.570;14.228;2023-07-31T00:29:19;96807.75;;;16.51;100.00
75815;BME280;70031;45.570;14.228;2023-07-31T00:31:19;96807.44;;;16.52;100.00
75815;BME280;70031;45.570;14.228;2023-07-31T00:33:20;96805.63;;;16.65;100.00
75815;BME280;70031;45.570;14.228;2023-07-31T00:35:20;96793.66;;;16.57;100.00
75815;BME280;70031;45.570;14.228;2023-07-31T00:37:20;96797.34;;;16.53;100.00
75815;BME280;70031;45.570;14.228;2023-07-31T00:39:21;96790.03;;;16.45;100.00
75815;BME280;70031;45.570;14.228;2023-07-31T00:41:21;96793.59;;;16.37;100.00
75815;BME280;70031;45.570;14.228;2023-07-31T00:43:22;96795.56;;;16.27;100.00
75815;BME280;70031;45.570;14.228;2023-07-31T00:45:23;96796.03;;;16.29;100.00
75815;BME280;70031;45.570;14.228;2023-07-31T00:47:24;96796.50;;;16.32;100.00
75815;BME280;70031;45.570;14.228;2023-07-31T00:49:24;96806.84;;;16.38;100.00
75815;BME280;70031;45.570;14.228;2023-07-31T00:51:25;96791.91;;;16.23;100.00
75815;BME280;70031;45.570;14.228;2023-07-31T00:53:25;96798.59;;;16.26;100.00
75815;BME280;70031;45.570;14.228;2023-07-31T00:55:26;96799.22;;;16.32;100.00
75815;BME280;70031;45.570;14.228;2023-07-31T00:57:26;96802.56;;;16.28;100.00
75815;BME280;70031;45.570;14.228;2023-07-31T00:59:26;96808.34;;;16.27;100.00
75815;BME280;70031;45.570;14.228;2023-07-31T01:01:27;96797.41;;;16.06;100.00
75815;BME280;70031;45.570;14.228;2023-07-31T01:03:28;96804.88;;;16.09;100.00
75815;BME280;70031;45.570;14.228;2023-07-31T01:06:14;96808.44;;;16.01;100.00
75815;BME280;70031;45.570;14.228;2023-07-31T01:10:18;96803.94;;;15.96;100.00
75815;BME280;70031;45.570;14.228;2023-07-31T01:12:22;96818.50;;;16.00;100.00
75815;BME280;70031;45.570;14.228;2023-07-31T01:14:23;96811.94;;;16.01;100.00
75815;BME280;70031;45.570;14.228;2023-07-31T01:16:25;96817.50;;;16.05;100.00
75815;BME280;70031;45.570;14.228;2023-07-31T01:18:26;96811.78;;;16.07;100.00
75815;BME280;70031;45.570;14.228;2023-07-31T01:20:29;96817.38;;;16.01;100.00
75815;BME280;70031;45.570;14.228;2023-07-31T01:27:59;96805.91;;;15.87;100.00
75815;BME280;70031;45.570;14.228;2023-07-31T01:30:04;96804.78;;;15.80;100.00
75815;BME280;70031;45.570;14.228;2023-07-31T01:32:11;96815.16;;;15.86;100.00
75815;BME280;70031;45.570;14.228;2023-07-31T01:34:13;96811.03;;;15.89;100.00
75815;BME280;70031;45.570;14.228;2023-07-31T01:36:16;96809.59;;;15.74;100.00
75815;BME280;70031;45.570;14.228;2023-07-31T01:38:20;96798.78;;;15.39;100.00
75815;BME280;70031;45.570;14.228;2023-07-31T01:40:21;96797.47;;;15.28;100.00
75815;BME280;70031;45.570;14.228;2023-07-31T01:42:22;96804.66;;;15.24;100.00
75815;BME280;70031;45.570;14.228;2023-07-31T01:44:22;96810.56;;;15.17;100.00
75815;BME280;70031;45.570;14.228;2023-07-31T01:46:23;96807.84;;;15.26;100.00
75815;BME280;70031;45.570;14.228;2023-07-31T01:48:23;96820.13;;;15.32;100.00
75815;BME280;70031;45.570;14.228;2023-07-31T01:50:23;96814.22;;;15.30;100.00
75815;BME280;70031;45.570;14.228;2023-07-31T01:52:24;96807.69;;;15.49;100.00
75815;BME280;70031;45.570;14.228;2023-07-31T01:54:24;96802.75;;;15.51;100.00
75815;BME280;70031;45.570;14.228;2023-07-31T01:56:24;96807.69;;;15.49;100.00
75815;BME280;70031;45.570;14.228;2023-07-31T01:58:25;96813.59;;;15.51;100.00
75815;BME280;70031;45.570;14.228;2023-07-31T04:15:50;96855.78;;;14.82;100.00
75815;BME280;70031;45.570;14.228;2023-07-31T04:17:51;96839.81;;;14.81;100.00
75815;BME280;70031;45.570;14.228;2023-07-31T04:20:03;96837.88;;;14.73;100.00
75815;BME280;70031;45.570;14.228;2023-07-31T04:22:06;96836.50;;;14.84;100.00
75815;BME280;70031;45.570;14.228;2023-07-31T04:24:07;96839.09;;;14.98;100.00
75815;BME280;70031;45.570;14.228;2023-07-31T04:26:13;96836.69;;;15.05;100.00
75815;BME280;70031;45.570;14.228;2023-07-31T04:34:48;96839.69;;;14.95;100.00
75815;BME280;70031;45.570;14.228;2023-07-31T04:36:57;96846.41;;;15.06;100.00
75815;BME280;70031;45.570;14.228;2023-07-31T04:39:00;96846.75;;;15.22;100.00
75815;BME280;70031;45.570;14.228;2023-07-31T04:41:01;96845.16;;;15.21;100.00
75815;BME280;70031;45.570;14.228;2023-07-31T04:43:04;96851.69;;;15.28;100.00
75815;BME280;70031;45.570;14.228;2023-07-31T04:45:05;96846.59;;;15.27;100.00
75815;BME280;70031;45.570;14.228;2023-07-31T04:47:05;96848.03;;;15.33;100.00
75815;BME280;70031;45.570;14.228;2023-07-31T04:49:06;96851.56;;;15.33;100.00
75815;BME280;70031;45.570;14.228;2023-07-31T04:51:06;96852.03;;;15.44;100.00
75815;BME280;70031;45.570;14.228;2023-07-31T04:53:07;96838.47;;;15.44;100.00
75815;BME280;70031;45.570;14.228;2023-07-31T04:55:07;96840.38;;;15.43;100.00
75815;BME280;70031;45.570;14.228;2023-07-31T04:57:13;96839.72;;;15.55;100.00
75815;BME280;70031;45.570;14.228;2023-07-31T04:59:24;96847.06;;;15.46;100.00
75815;BME280;70031;45.570;14.228;2023-07-31T05:01:53;96847.56;;;15.39;100.00
75815;BME280;70031;45.570;14.228;2023-07-31T05:10:40;96844.56;;;15.76;100.00
75815;BME280;70031;45.570;14.228;2023-07-31T05:12:41;96849.53;;;15.65;100.00
75815;BME280;70031;45.570;14.228;2023-07-31T05:14:41;96856.22;;;15.67;100.00
75815;BME280;70031;45.570;14.228;2023-07-31T05:16:41;96841.66;;;15.63;100.00
75815;BME280;70031;45.570;14.228;2023-07-31T05:18:42;96847.25;;;15.84;100.00
75815;BME280;70031;45.570;14.228;2023-07-31T05:20:42;96843.06;;;15.95;100.00
75815;BME280;70031;45.570;14.228;2023-07-31T05:22:42;96847.03;;;16.15;100.00
75815;BME280;70031;45.570;14.228;2023-07-31T05:24:45;96848.31;;;16.18;100.00
75815;BME280;70031;45.570;14.228;2023-07-31T05:26:46;96851.97;;;16.13;100.00
75815;BME280;70031;45.570;14.228;2023-07-31T05:28:46;96848.06;;;16.40;100.00
75815;BME280;70031;45.570;14.228;2023-07-31T05:30:46;96853.44;;;16.57;100.00
75815;BME280;70031;45.570;14.228;2023-07-31T05:32:47;96854.19;;;16.67;100.00
75815;BME280;70031;45.570;14.228;2023-07-31T05:34:50;96863.16;;;16.67;100.00
75815;BME280;70031;45.570;14.228;2023-07-31T05:36:50;96854.25;;;16.58;100.00
75815;BME280;70031;45.570;14.228;2023-07-31T05:38:51;96849.81;;;16.45;100.00
75815;BME280;70031;45.570;14.228;2023-07-31T05:40:51;96853.00;;;16.38;100.00
75815;BME280;70031;45.570;14.228;2023-07-31T05:42:51;96856.41;;;16.26;100.00
75815;BME280;70031;45.570;14.228;2023-07-31T05:44:52;96864.34;;;16.49;100.00
75815;BME280;70031;45.570;14.228;2023-07-31T05:46:54;96868.19;;;16.48;100.00
75815;BME280;70031;45.570;14.228;2023-07-31T05:48:55;96863.34;;;16.53;100.00
75815;BME280;70031;45.570;14.228;2023-07-31T05:50:55;96862.72;;;16.56;100.00
75815;BME280;70031;45.570;14.228;2023-07-31T05:53:19;96861.53;;;16.28;100.00
75815;BME280;70031;45.570;14.228;2023-07-31T05:55:30;96864.13;;;16.16;100.00
75815;BME280;70031;45.570;14.228;2023-07-31T05:57:30;96862.50;;;16.23;100.00
75815;BME280;70031;45.570;14.228;2023-07-31T05:59:31;96859.63;;;16.20;100.00
75815;BME280;70031;45.570;14.228;2023-07-31T06:01:33;96864.44;;;16.23;100.00
75815;BME280;70031;45.570;14.228;2023-07-31T06:03:39;96863.31;;;16.24;100.00
75815;BME280;70031;45.570;14.228;2023-07-31T06:05:43;96863.75;;;16.35;100.00
75815;BME280;70031;45.570;14.228;2023-07-31T06:07:46;96863.41;;;16.36;100.00
75815;BME280;70031;45.570;14.228;2023-07-31T06:09:48;96860.06;;;16.39;100.00
75815;BME280;70031;45.570;14.228;2023-07-31T06:11:49;96864.81;;;16.51;100.00
75815;BME280;70031;45.570;14.228;2023-07-31T06:13:50;96866.13;;;16.83;100.00
75815;BME280;70031;45.570;14.228;2023-07-31T06:15:50;96860.66;;;16.92;100.00
75815;BME280;70031;45.570;14.228;2023-07-31T06:17:53;96863.78;;;17.32;100.00
75815;BME280;70031;45.570;14.228;2023-07-31T06:19:53;96852.81;;;17.61;100.00
75815;BME280;70031;45.570;14.228;2023-07-31T06:22:01;96857.47;;;17.61;100.00
75815;BME280;70031;45.570;14.228;2023-07-31T06:24:21;96850.56;;;17.63;100.00
75815;BME280;70031;45.570;14.228;2023-07-31T06:26:22;96850.44;;;18.14;100.00
75815;BME280;70031;45.570;14.228;2023-07-31T06:28:27;96841.84;;;18.24;100.00
75815;BME280;70031;45.570;14.228;2023-07-31T06:30:29;96843.53;;;18.16;100.00
75815;BME280;70031;45.570;14.228;2023-07-31T06:32:34;96860.13;;;17.90;100.00
75815;BME280;70031;45.570;14.228;2023-07-31T06:34:36;96842.78;;;18.52;100.00
75815;BME280;70031;45.570;14.228;2023-07-31T06:36:36;96841.59;;;19.51;100.00
75815;BME280;70031;45.570;14.228;2023-07-31T06:38:36;96845.78;;;19.61;100.00
75815;BME280;70031;45.570;14.228;2023-07-31T06:40:37;96837.81;;;19.16;100.00
75815;BME280;70031;45.570;14.228;2023-07-31T06:42:41;96850.69;;;19.96;100.00
75815;BME280;70031;45.570;14.228;2023-07-31T06:44:41;96850.34;;;21.04;100.00
75815;BME280;70031;45.570;14.228;2023-07-31T06:46:42;96855.53;;;22.18;94.18
75815;BME280;70031;45.570;14.228;2023-07-31T06:48:42;96845.66;;;23.05;85.76
75815;BME280;70031;45.570;14.228;2023-07-31T06:50:43;96849.25;;;23.36;81.64
75815;BME280;70031;45.570;14.228;2023-07-31T06:52:43;96849.25;;;23.62;79.90
75815;BME280;70031;45.570;14.228;2023-07-31T06:54:44;96852.31;;;24.24;78.43
75815;BME280;70031;45.570;14.228;2023-07-31T06:56:44;96854.06;;;24.36;78.69
75815;BME280;70031;45.570;14.228;2023-07-31T06:58:44;96854.91;;;24.84;76.07
75815;BME280;70031;45.570;14.228;2023-07-31T07:00:45;96844.81;;;24.55;74.44
75815;BME280;70031;45.570;14.228;2023-07-31T07:02:45;96849.03;;;24.42;74.90
75815;BME280;70031;45.570;14.228;2023-07-31T07:04:51;96849.94;;;24.19;80.49
75815;BME280;70031;45.570;14.228;2023-07-31T07:06:52;96844.06;;;23.31;83.44
75815;BME280;70031;45.570;14.228;2023-07-31T07:08:55;96846.59;;;23.16;84.29
75815;BME280;70031;45.570;14.228;2023-07-31T07:10:57;96841.66;;;25.01;75.08
75815;BME280;70031;45.570;14.228;2023-07-31T07:12:58;96839.06;;;25.91;71.94
75815;BME280;70031;45.570;14.228;2023-07-31T07:14:59;96829.72;;;26.24;70.21
75815;BME280;70031;45.570;14.228;2023-07-31T07:17:00;96834.03;;;26.18;72.13
75815;BME280;70031;45.570;14.228;2023-07-31T07:19:00;96829.41;;;26.76;71.65
75815;BME280;70031;45.570;14.228;2023-07-31T07:21:00;96828.22;;;26.87;63.84
75815;BME280;70031;45.570;14.228;2023-07-31T07:23:02;96826.63;;;26.97;65.65
75815;BME280;70031;45.570;14.228;2023-07-31T07:25:04;96822.69;;;26.98;70.22
75815;BME280;70031;45.570;14.228;2023-07-31T07:27:05;96828.63;;;26.90;72.37
75815;BME280;70031;45.570;14.228;2023-07-31T07:29:05;96823.84;;;27.36;65.74
75815;BME280;70031;45.570;14.228;2023-07-31T07:31:08;96822.19;;;27.71;66.24
75815;BME280;70031;45.570;14.228;2023-07-31T07:33:08;96828.44;;;27.89;64.53
75815;BME280;70031;45.570;14.228;2023-07-31T07:35:08;96837.31;;;28.40;61.72
75815;BME280;70031;45.570;14.228;2023-07-31T07:37:12;96824.19;;;27.60;60.81
75815;BME280;70031;45.570;14.228;2023-07-31T07:39:12;96827.44;;;26.58;65.14
75815;BME280;70031;45.570;14.228;2023-07-31T07:41:12;96827.81;;;27.25;68.78
75815;BME280;70031;45.570;14.228;2023-07-31T07:43:13;96819.03;;;27.62;70.67
75815;BME280;70031;45.570;14.228;2023-07-31T07:45:13;96827.28;;;26.01;64.07
75815;BME280;70031;45.570;14.228;2023-07-31T07:47:14;96824.06;;;25.89;61.06
75815;BME280;70031;45.570;14.228;2023-07-31T07:49:14;96821.59;;;25.62;59.07
75815;BME280;70031;45.570;14.228;2023-07-31T07:51:14;96827.63;;;25.86;58.92
75815;BME280;70031;45.570;14.228;2023-07-31T07:53:15;96828.63;;;26.65;61.22
75815;BME280;70031;45.570;14.228;2023-07-31T07:55:15;96830.56;;;26.43;59.55
75815;BME280;70031;45.570;14.228;2023-07-31T07:57:16;96826.06;;;25.92;68.58
75815;BME280;70031;45.570;14.228;2023-07-31T07:59:25;96822.47;;;25.77;59.57
75815;BME280;70031;45.570;14.228;2023-07-31T08:01:25;96819.91;;;25.43;62.09
75815;BME280;70031;45.570;14.228;2023-07-31T08:03:25;96817.97;;;26.59;62.67
75815;BME280;70031;45.570;14.228;2023-07-31T08:05:26;96818.72;;;26.46;64.80
75815;BME280;70031;45.570;14.228;2023-07-31T08:07:34;96825.06;;;26.53;58.80
75815;BME280;70031;45.570;14.228;2023-07-31T08:09:34;96820.69;;;27.27;60.71
75815;BME280;70031;45.570;14.228;2023-07-31T08:11:52;96823.75;;;26.04;60.45
75815;BME280;70031;45.570;14.228;2023-07-31T08:13:53;96824.59;;;26.26;59.51
75815;BME280;70031;45.570;14.228;2023-07-31T08:15:58;96829.81;;;25.52;64.53
75815;BME280;70031;45.570;14.228;2023-07-31T08:18:03;96826.84;;;25.85;57.51
75815;BME280;70031;45.570;14.228;2023-07-31T08:20:03;96828.53;;;26.36;63.17
75815;BME280;70031;45.570;14.228;2023-07-31T08:22:07;96825.94;;;25.70;63.69
75815;BME280;70031;45.570;14.228;2023-07-31T08:24:08;96818.66;;;25.30;57.35
75815;BME280;70031;45.570;14.228;2023-07-31T08:26:15;96824.50;;;25.91;63.68
75815;BME280;70031;45.570;14.228;2023-07-31T08:28:18;96827.06;;;25.52;63.85
75815;BME280;70031;45.570;14.228;2023-07-31T08:30:19;96832.88;;;26.37;70.00
75815;BME280;70031;45.570;14.228;2023-07-31T08:32:19;96831.19;;;25.97;59.62
75815;BME280;70031;45.570;14.228;2023-07-31T08:34:22;96833.94;;;25.83;64.35
75815;BME280;70031;45.570;14.228;2023-07-31T08:36:23;96835.81;;;25.71;63.58
75815;BME280;70031;45.570;14.228;2023-07-31T08:38:23;96838.06;;;25.55;60.65
75815;BME280;70031;45.570;14.228;2023-07-31T08:40:25;96840.19;;;25.76;60.94
75815;BME280;70031;45.570;14.228;2023-07-31T08:42:30;96839.63;;;26.54;64.57
75815;BME280;70031;45.570;14.228;2023-07-31T08:44:34;96830.97;;;26.52;57.27
75815;BME280;70031;45.570;14.228;2023-07-31T08:46:37;96832.06;;;26.22;58.65
75815;BME280;70031;45.570;14.228;2023-07-31T08:48:42;96825.41;;;27.48;56.55
75815;BME280;70031;45.570;14.228;2023-07-31T08:50:43;96826.25;;;27.17;60.67
75815;BME280;70031;45.570;14.228;2023-07-31T08:52:45;96826.63;;;27.29;55.88
75815;BME280;70031;45.570;14.228;2023-07-31T08:54:45;96830.09;;;27.69;61.02
75815;BME280;70031;45.570;14.228;2023-07-31T08:59:34;96830.84;;;26.13;58.04
75815;BME280;70031;45.570;14.228;2023-07-31T09:01:43;96822.38;;;25.63;57.31
75815;BME280;70031;45.570;14.228;2023-07-31T09:03:45;96832.91;;;25.43;62.00
75815;BME280;70031;45.570;14.228;2023-07-31T09:05:46;96819.50;;;25.38;62.21
75815;BME280;70031;45.570;14.228;2023-07-31T09:07:47;96819.22;;;25.61;65.01
75815;BME280;70031;45.570;14.228;2023-07-31T09:09:57;96831.13;;;25.79;65.80
75815;BME280;70031;45.570;14.228;2023-07-31T09:11:58;96829.19;;;25.87;63.40
75815;BME280;70031;45.570;14.228;2023-07-31T09:14:00;96820.53;;;25.88;60.27
75815;BME280;70031;45.570;14.228;2023-07-31T09:16:05;96822.94;;;26.00;60.50
75815;BME280;70031;45.570;14.228;2023-07-31T09:18:09;96823.38;;;26.10;56.53
75815;BME280;70031;45.570;14.228;2023-07-31T09:22:17;96814.03;;;26.85;56.75
75815;BME280;70031;45.570;14.228;2023-07-31T09:24:31;96813.25;;;26.74;55.99
75815;BME280;70031;45.570;14.228;2023-07-31T09:26:36;96817.75;;;25.81;54.50
75815;BME280;70031;45.570;14.228;2023-07-31T09:28:37;96808.00;;;26.12;54.95
75815;BME280;70031;45.570;14.228;2023-07-31T09:32:49;96812.03;;;26.72;55.36
75815;BME280;70031;45.570;14.228;2023-07-31T09:34:49;96813.16;;;26.28;54.16
75815;BME280;70031;45.570;14.228;2023-07-31T09:36:52;96811.72;;;25.58;54.47
75815;BME280;70031;45.570;14.228;2023-07-31T09:38:55;96811.06;;;25.09;58.69
75815;BME280;70031;45.570;14.228;2023-07-31T09:40:58;96804.72;;;25.05;59.53
75815;BME280;70031;45.570;14.228;2023-07-31T09:43:20;96810.25;;;25.05;59.83
75815;BME280;70031;45.570;14.228;2023-07-31T09:45:21;96809.91;;;25.14;58.38
75815;BME280;70031;45.570;14.228;2023-07-31T09:47:22;96810.19;;;25.02;63.92
75815;BME280;70031;45.570;14.228;2023-07-31T09:49:45;96812.91;;;24.94;61.30
75815;BME280;70031;45.570;14.228;2023-07-31T09:51:49;96809.75;;;24.96;63.13
75815;BME280;70031;45.570;14.228;2023-07-31T09:53:52;96807.59;;;25.23;62.78
75815;BME280;70031;45.570;14.228;2023-07-31T09:55:56;96800.06;;;25.09;59.71
75815;BME280;70031;45.570;14.228;2023-07-31T09:58:06;96805.22;;;25.18;61.21
75815;BME280;70031;45.570;14.228;2023-07-31T10:00:32;96804.81;;;25.16;62.36
75815;BME280;70031;45.570;14.228;2023-07-31T10:02:39;96807.38;;;24.91;61.18
75815;BME280;70031;45.570;14.228;2023-07-31T10:04:43;96793.38;;;25.14;64.99
75815;BME280;70031;45.570;14.228;2023-07-31T10:06:49;96798.53;;;25.19;63.75
75815;BME280;70031;45.570;14.228;2023-07-31T10:08:57;96794.59;;;25.16;66.91
75815;BME280;70031;45.570;14.228;2023-07-31T10:10:59;96800.00;;;25.06;62.71
75815;BME280;70031;45.570;14.228;2023-07-31T10:13:18;96796.25;;;24.80;60.89
75815;BME280;70031;45.570;14.228;2023-07-31T10:15:22;96799.66;;;25.07;64.42
75815;BME280;70031;45.570;14.228;2023-07-31T10:17:26;96795.91;;;24.85;62.02
75815;BME280;70031;45.570;14.228;2023-07-31T10:19:30;96798.19;;;25.24;61.12
75815;BME280;70031;45.570;14.228;2023-07-31T10:21:31;96792.53;;;25.03;61.37
75815;BME280;70031;45.570;14.228;2023-07-31T10:23:35;96792.63;;;25.17;64.75
75815;BME280;70031;45.570;14.228;2023-07-31T10:25:37;96800.00;;;25.06;64.23
75815;BME280;70031;45.570;14.228;2023-07-31T10:27:38;96804.97;;;24.89;63.54
75815;BME280;70031;45.570;14.228;2023-07-31T10:29:40;96789.03;;;25.13;68.45
75815;BME280;70031;45.570;14.228;2023-07-31T10:31:41;96789.28;;;24.93;65.60
75815;BME280;70031;45.570;14.228;2023-07-31T10:33:42;96790.22;;;25.12;60.46
75815;BME280;70031;45.570;14.228;2023-07-31T10:35:45;96791.09;;;25.30;65.71
75815;BME280;70031;45.570;14.228;2023-07-31T10:37:47;96792.84;;;25.60;66.24
75815;BME280;70031;45.570;14.228;2023-07-31T10:39:56;96786.47;;;25.48;59.24
75815;BME280;70031;45.570;14.228;2023-07-31T10:41:59;96793.19;;;25.51;59.90
75815;BME280;70031;45.570;14.228;2023-07-31T10:44:13;96789.19;;;25.38;63.64
75815;BME280;70031;45.570;14.228;2023-07-31T10:46:14;96790.47;;;25.62;63.46
75815;BME280;70031;45.570;14.228;2023-07-31T10:48:17;96791.97;;;25.48;63.62
75815;BME280;70031;45.570;14.228;2023-07-31T10:50:23;96795.06;;;25.33;60.35
75815;BME280;70031;45.570;14.228;2023-07-31T10:52:34;96794.16;;;25.84;64.56
75815;BME280;70031;45.570;14.228;2023-07-31T10:54:35;96788.91;;;25.57;57.43
75815;BME280;70031;45.570;14.228;2023-07-31T10:56:38;96792.75;;;25.45;60.59
75815;BME280;70031;45.570;14.228;2023-07-31T10:58:43;96797.47;;;25.41;60.11
75815;BME280;70031;45.570;14.228;2023-07-31T11:00:45;96787.41;;;25.81;68.66
75815;BME280;70031;45.570;14.228;2023-07-31T11:03:07;96794.63;;;26.25;62.11
75815;BME280;70031;45.570;14.228;2023-07-31T11:05:14;96791.03;;;25.99;63.18
75815;BME280;70031;45.570;14.228;2023-07-31T11:07:18;96792.09;;;25.70;62.67
75815;BME280;70031;45.570;14.228;2023-07-31T11:09:30;96791.28;;;25.69;59.05
75815;BME280;70031;45.570;14.228;2023-07-31T11:11:46;96797.56;;;25.63;65.06
75815;BME280;70031;45.570;14.228;2023-07-31T11:13:50;96788.66;;;25.91;64.90
75815;BME280;70031;45.570;14.228;2023-07-31T11:15:57;96789.41;;;25.84;59.59
75815;BME280;70031;45.570;14.228;2023-07-31T11:17:59;96785.22;;;26.47;64.77
75815;BME280;70031;45.570;14.228;2023-07-31T11:20:00;96785.19;;;26.33;58.22
75815;BME280;70031;45.570;14.228;2023-07-31T11:22:01;96784.44;;;26.50;62.92
75815;BME280;70031;45.570;14.228;2023-07-31T11:24:02;96793.06;;;26.31;57.92
75815;BME280;70031;45.570;14.228;2023-07-31T11:26:11;96791.88;;;26.28;60.96
75815;BME280;70031;45.570;14.228;2023-07-31T11:28:16;96791.53;;;26.41;58.42
75815;BME280;70031;45.570;14.228;2023-07-31T11:30:19;96795.47;;;26.43;60.18
75815;BME280;70031;45.570;14.228;2023-07-31T11:32:19;96788.00;;;26.44;60.01
75815;BME280;70031;45.570;14.228;2023-07-31T11:34:22;96787.16;;;26.25;55.15
75815;BME280;70031;45.570;14.228;2023-07-31T11:36:25;96783.63;;;26.46;63.38
75815;BME280;70031;45.570;14.228;2023-07-31T11:41:02;96775.75;;;26.55;63.25
75815;BME280;70031;45.570;14.228;2023-07-31T11:43:04;96772.53;;;26.11;56.80
75815;BME280;70031;45.570;14.228;2023-07-31T11:45:08;96775.22;;;25.89;57.75
75815;BME280;70031;45.570;14.228;2023-07-31T11:47:14;96761.09;;;25.94;56.76
75815;BME280;70031;45.570;14.228;2023-07-31T11:49:19;96752.91;;;26.41;62.08
75815;BME280;70031;45.570;14.228;2023-07-31T11:51:27;96750.47;;;26.14;61.30
75815;BME280;70031;45.570;14.228;2023-07-31T11:53:38;96748.94;;;26.38;59.37
75815;BME280;70031;45.570;14.228;2023-07-31T11:55:43;96754.47;;;26.59;57.73
75815;BME280;70031;45.570;14.228;2023-07-31T11:57:54;96754.44;;;26.92;56.86
75815;BME280;70031;45.570;14.228;2023-07-31T11:59:58;96760.75;;;26.35;55.11
75815;BME280;70031;45.570;14.228;2023-07-31T12:02:01;96755.13;;;25.82;56.95
75815;BME280;70031;45.570;14.228;2023-07-31T12:04:07;96754.00;;;25.93;63.05
75815;BME280;70031;45.570;14.228;2023-07-31T12:06:10;96743.81;;;26.54;66.18
75815;BME280;70031;45.570;14.228;2023-07-31T12:08:14;96750.50;;;26.89;56.13
75815;BME280;70031;45.570;14.228;2023-07-31T12:10:37;96751.69;;;26.88;55.25
75815;BME280;70031;45.570;14.228;2023-07-31T12:12:38;96748.13;;;27.02;56.92
75815;BME280;70031;45.570;14.228;2023-07-31T12:14:41;96752.50;;;26.71;57.08
75815;BME280;70031;45.570;14.228;2023-07-31T12:16:42;96762.31;;;26.97;60.97
75815;BME280;70031;45.570;14.228;2023-07-31T12:18:42;96749.28;;;26.97;60.13
75815;BME280;70031;45.570;14.228;2023-07-31T12:23:31;96754.06;;;26.90;54.33
75815;BME280;70031;45.570;14.228;2023-07-31T12:25:54;96743.00;;;26.86;54.66
75815;BME280;70031;45.570;14.228;2023-07-31T12:28:29;96744.59;;;26.87;52.18
75815;BME280;70031;45.570;14.228;2023-07-31T12:30:43;96728.34;;;27.25;50.74
75815;BME280;70031;45.570;14.228;2023-07-31T12:32:45;96736.28;;;27.12;49.23
75815;BME280;70031;45.570;14.228;2023-07-31T12:34:45;96732.75;;;27.04;51.02
75815;BME280;70031;45.570;14.228;2023-07-31T12:36:56;96723.22;;;27.27;47.11
75815;BME280;70031;45.570;14.228;2023-07-31T12:39:05;96715.28;;;27.36;45.88
75815;BME280;70031;45.570;14.228;2023-07-31T12:41:32;96704.59;;;27.41;51.21
75815;BME280;70031;45.570;14.228;2023-07-31T12:44:09;96701.41;;;27.47;48.15
75815;BME280;70031;45.570;14.228;2023-07-31T12:46:11;96688.19;;;27.90;44.09
75815;BME280;70031;45.570;14.228;2023-07-31T12:48:14;96689.34;;;26.94;48.51
75815;BME280;70031;45.570;14.228;2023-07-31T12:50:18;96681.78;;;27.23;50.91
75815;BME280;70031;45.570;14.228;2023-07-31T12:52:45;96682.34;;;27.74;50.44
75815;BME280;70031;45.570;14.228;2023-07-31T12:55:03;96678.50;;;27.50;50.41
75815;BME280;70031;45.570;14.228;2023-07-31T12:57:21;96686.44;;;27.40;53.14
75815;BME280;70031;45.570;14.228;2023-07-31T13:04:37;96681.75;;;27.34;47.17
75815;BME280;70031;45.570;14.228;2023-07-31T13:09:30;96674.03;;;27.77;50.35
75815;BME280;70031;45.570;14.228;2023-07-31T13:11:30;96663.97;;;28.01;49.03
75815;BME280;70031;45.570;14.228;2023-07-31T13:13:43;96669.31;;;27.63;46.11
75815;BME280;70031;45.570;14.228;2023-07-31T13:15:53;96676.81;;;27.74;45.64
75815;BME280;70031;45.570;14.228;2023-07-31T13:18:19;96663.28;;;27.90;49.75
75815;BME280;70031;45.570;14.228;2023-07-31T13:20:20;96660.78;;;27.36;47.11
75815;BME280;70031;45.570;14.228;2023-07-31T13:22:31;96667.66;;;27.84;56.28
75815;BME280;70031;45.570;14.228;2023-07-31T13:24:41;96657.25;;;28.02;54.30
75815;BME280;70031;45.570;14.228;2023-07-31T13:33:17;96672.41;;;27.80;44.49
75815;BME280;70031;45.570;14.228;2023-07-31T13:35:40;96666.56;;;27.70;43.76
75815;BME280;70031;45.570;14.228;2023-07-31T13:44:29;96651.06;;;27.84;41.59
75815;BME280;70031;45.570;14.228;2023-07-31T13:46:32;96648.81;;;27.68;44.11
75815;BME280;70031;45.570;14.228;2023-07-31T13:48:43;96644.75;;;27.80;42.65
75815;BME280;70031;45.570;14.228;2023-07-31T13:50:47;96647.28;;;27.56;42.16
75815;BME280;70031;45.570;14.228;2023-07-31T13:52:50;96657.13;;;27.57;50.99
75815;BME280;70031;45.570;14.228;2023-07-31T13:55:08;96651.16;;;27.69;55.77